sensor_id;sensor_type;location;lat;lon;timestamp;P1;durP1;ratioP1;P2;durP2;ratioP2
1601;SDS011;794;48.592;9.634;2023-06-22T00:01:19;13.63;;;9.40;;
1601;SDS011;794;48.592;9.634;2023-06-22T00:03:47;10.70;;;9.70;;
1601;SDS011;794;48.592;9.634;2023-06-22T00:06:14;11.30;;;9.17;;
1601;SDS011;794;48.592;9.634;2023-06-22T00:08:41;13.23;;;11.40;;
1601;SDS011;794;48.592;9.634;2023-06-22T00:11:08;10.33;;;9.23;;
1601;SDS011;794;48.592;9.634;2023-06-22T00:13:35;10.77;;;9.53;;
1601;SDS011;794;48.592;9.634;2023-06-22T00:16:03;10.67;;;8.40;;
1601;SDS011;794;48.592;9.634;2023-06-22T00:18:30;9.67;;;8.70;;
1601;SDS011;794;48.592;9.634;2023-06-22T00:20:57;11.70;;;10.60;;
1601;SDS011;794;48.592;9.634;2023-06-22T00:23:25;15.13;;;8.80;;
1601;SDS011;794;48.592;9.634;2023-06-22T00:25:52;15.83;;;8.80;;
1601;SDS011;794;48.592;9.634;2023-06-22T00:28:19;7.83;;;7.03;;
1601;SDS011;794;48.592;9.634;2023-06-22T00:30:46;9.23;;;8.07;;
1601;SDS011;794;48.592;9.634;2023-06-22T00:33:15;10.23;;;8.00;;
1601;SDS011;794;48.592;9.634;2023-06-22T00:35:41;8.13;;;7.33;;
1601;SDS011;794;48.592;9.634;2023-06-22T00:38:08;11.13;;;8.03;;
1601;SDS011;794;48.592;9.634;2023-06-22T00:40:35;9.87;;;7.90;;
1601;SDS011;794;48.592;9.634;2023-06-22T00:43:09;13.20;;;9.00;;
1601;SDS011;794;48.592;9.634;2023-06-22T00:45:35;13.43;;;9.13;;
1601;SDS011;794;48.592;9.634;2023-06-22T00:48:03;9.97;;;8.37;;
1601;SDS011;794;48.592;9.634;2023-06-22T00:50:33;11.10;;;8.83;;
1601;SDS011;794;48.592;9.634;2023-06-22T00:53:01;9.67;;;8.70;;
1601;SDS011;794;48.592;9.634;2023-06-22T00:55:33;10.90;;;8.20;;
1601;SDS011;794;48.592;9.634;2023-06-22T00:58:02;10.30;;;7.97;;
1601;SDS011;794;48.592;9.634;2023-06-22T01:00:33;9.53;;;7.87;;
1601;SDS011;794;48.592;9.634;2023-06-22T01:03:01;9.70;;;8.20;;
1601;SDS011;794;48.592;9.634;2023-06-22T01:05:28;7.53;;;6.47;;
1601;SDS011;794;48.592;9.634;2023-06-22T01:08:03;10.93;;;7.73;;
1601;SDS011;794;48.592;9.634;2023-06-22T01:10:35;10.80;;;7.80;;
1601;SDS011;794;48.592;9.634;2023-06-22T01:13:08;11.43;;;8.93;;
1601;SDS011;794;48.592;9.634;2023-06-22T01:15:44;9.43;;;8.07;;
1601;SDS011;794;48.592;9.634;2023-06-22T01:18:14;11.67;;;7.30;;
1601;SDS011;794;48.592;9.634;2023-06-22T01:20:44;9.63;;;7.63;;
1601;SDS011;794;48.592;9.634;2023-06-22T01:23:25;8.63;;;7.63;;
1601;SDS011;794;48.592;9.634;2023-06-22T01:25:57;8.53;;;7.20;;
1601;SDS011;794;48.592;9.634;2023-06-22T01:28:41;11.60;;;9.67;;
1601;SDS011;794;48.592;9.634;2023-06-22T01:31:11;13.00;;;7.40;;
1601;SDS011;794;48.592;9.634;2023-06-22T01:33:41;10.03;;;8.83;;
1601;SDS011;794;48.592;9.634;2023-06-22T01:36:11;10.67;;;8.17;;
1601;SDS011;794;48.592;9.634;2023-06-22T01:38:39;8.77;;;7.87;;
1601;SDS011;794;48.592;9.634;2023-06-22T01:41:15;9.30;;;6.93;;
1601;SDS011;794;48.592;9.634;2023-06-22T01:43:44;7.80;;;6.90;;
1601;SDS011;794;48.592;9.634;2023-06-22T01:46:14;9.40;;;6.60;;
1601;SDS011;794;48.592;9.634;2023-06-22T01:48:44;7.93;;;6.80;;
1601;SDS011;794;48.592;9.634;2023-06-22T01:51:12;10.37;;;6.90;;
1601;SDS011;794;48.592;9.634;2023-06-22T01:53:39;9.00;;;6.77;;
1601;SDS011;794;48.592;9.634;2023-06-22T01:56:06;8.40;;;6.77;;
1601;SDS011;794;48.592;9.634;2023-06-22T01:58:33;14.10;;;8.27;;
1601;SDS011;794;48.592;9.634;2023-06-22T02:01:06;7.43;;;6.57;;
1601;SDS011;794;48.592;9.634;2023-06-22T02:03:41;11.17;;;7.83;;
1601;SDS011;794;48.592;9.634;2023-06-22T02:06:13;13.33;;;6.30;;
1601;SDS011;794;48.592;9.634;2023-06-22T02:08:46;15.77;;;7.47;;
1601;SDS011;794;48.592;9.634;2023-06-22T02:11:16;9.60;;;6.70;;
1601;SDS011;794;48.592;9.634;2023-06-22T02:13:45;6.77;;;5.53;;
1601;SDS011;794;48.592;9.634;2023-06-22T02:16:14;11.50;;;6.60;;
1601;SDS011;794;48.592;9.634;2023-06-22T02:18:45;8.60;;;6.43;;
1601;SDS011;794;48.592;9.634;2023-06-22T02:21:16;10.50;;;7.17;;
1601;SDS011;794;48.592;9.634;2023-06-22T02:23:49;11.13;;;7.47;;
1601;SDS011;794;48.592;9.634;2023-06-22T02:26:17;8.73;;;6.90;;
1601;SDS011;794;48.592;9.634;2023-06-22T02:28:44;9.10;;;6.60;;
1601;SDS011;794;48.592;9.634;2023-06-22T02:31:12;12.40;;;5.30;;
1601;SDS011;794;48.592;9.634;2023-06-22T02:33:41;9.63;;;7.33;;
1601;SDS011;794;48.592;9.634;2023-06-22T02:36:08;9.87;;;7.03;;
1601;SDS011;794;48.592;9.634;2023-06-22T02:38:38;10.43;;;6.03;;
1601;SDS011;794;48.592;9.634;2023-06-22T02:41:05;8.93;;;6.23;;
1601;SDS011;794;48.592;9.634;2023-06-22T02:43:32;9.27;;;6.90;;
1601;SDS011;794;48.592;9.634;2023-06-22T02:45:59;10.77;;;6.70;;
1601;SDS011;794;48.592;9.634;2023-06-22T02:48:30;9.43;;;5.77;;
1601;SDS011;794;48.592;9.634;2023-06-22T02:50:56;7.90;;;5.93;;
1601;SDS011;794;48.592;9.634;2023-06-22T02:53:23;8.97;;;6.20;;
1601;SDS011;794;48.592;9.634;2023-06-22T02:55:50;7.67;;;5.90;;
1601;SDS011;794;48.592;9.634;2023-06-22T02:58:17;8.03;;;5.80;;
1601;SDS011;794;48.592;9.634;2023-06-22T03:00:44;8.00;;;6.60;;
1601;SDS011;794;48.592;9.634;2023-06-22T03:03:11;8.47;;;5.67;;
1601;SDS011;794;48.592;9.634;2023-06-22T03:05:39;6.43;;;5.80;;
1601;SDS011;794;48.592;9.634;2023-06-22T03:08:06;9.13;;;7.10;;
1601;SDS011;794;48.592;9.634;2023-06-22T03:10:33;7.70;;;5.97;;
1601;SDS011;794;48.592;9.634;2023-06-22T03:13:00;8.80;;;6.07;;
1601;SDS011;794;48.592;9.634;2023-06-22T03:15:27;9.97;;;7.10;;
1601;SDS011;794;48.592;9.634;2023-06-22T03:17:54;9.57;;;6.23;;
1601;SDS011;794;48.592;9.634;2023-06-22T03:20:21;7.13;;;5.20;;
1601;SDS011;794;48.592;9.634;2023-06-22T03:22:49;12.60;;;6.80;;
1601;SDS011;794;48.592;9.634;2023-06-22T03:25:16;15.20;;;6.67;;
1601;SDS011;794;48.592;9.634;2023-06-22T03:27:43;7.43;;;6.17;;
1601;SDS011;794;48.592;9.634;2023-06-22T03:30:11;7.90;;;6.73;;
1601;SDS011;794;48.592;9.634;2023-06-22T03:32:38;7.80;;;6.20;;
1601;SDS011;794;48.592;9.634;2023-06-22T03:35:05;10.83;;;6.20;;
1601;SDS011;794;48.592;9.634;2023-06-22T03:37:33;6.70;;;5.43;;
1601;SDS011;794;48.592;9.634;2023-06-22T03:40:01;9.23;;;6.60;;
1601;SDS011;794;48.592;9.634;2023-06-22T03:42:30;7.53;;;6.43;;
1601;SDS011;794;48.592;9.634;2023-06-22T03:44:57;9.57;;;7.37;;
1601;SDS011;794;48.592;9.634;2023-06-22T03:47:26;12.07;;;7.40;;
1601;SDS011;794;48.592;9.634;2023-06-22T03:49:52;11.80;;;6.93;;
1601;SDS011;794;48.592;9.634;2023-06-22T03:52:20;7.50;;;6.53;;
1601;SDS011;794;48.592;9.634;2023-06-22T03:54:47;10.97;;;7.43;;
1601;SDS011;794;48.592;9.634;2023-06-22T03:57:15;8.00;;;7.03;;
1601;SDS011;794;48.592;9.634;2023-06-22T03:59:42;7.60;;;6.73;;
1601;SDS011;794;48.592;9.634;2023-06-22T04:02:09;12.30;;;6.90;;
1601;SDS011;794;48.592;9.634;2023-06-22T04:04:36;13.13;;;8.00;;
1601;SDS011;794;48.592;9.634;2023-06-22T04:07:04;10.07;;;7.63;;
1601;SDS011;794;48.592;9.634;2023-06-22T04:09:31;12.93;;;8.40;;
1601;SDS011;794;48.592;9.634;2023-06-22T04:11:57;11.13;;;8.20;;
1601;SDS011;794;48.592;9.634;2023-06-22T04:14:26;11.90;;;8.30;;
1601;SDS011;794;48.592;9.634;2023-06-22T04:16:53;10.57;;;7.73;;
1601;SDS011;794;48.592;9.634;2023-06-22T04:19:19;9.70;;;7.60;;
1601;SDS011;794;48.592;9.634;2023-06-22T04:21:47;7.57;;;6.77;;
1601;SDS011;794;48.592;9.634;2023-06-22T04:24:14;12.10;;;7.50;;
1601;SDS011;794;48.592;9.634;2023-06-22T04:26:41;8.37;;;7.53;;
1601;SDS011;794;48.592;9.634;2023-06-22T04:29:10;9.13;;;6.50;;
1601;SDS011;794;48.592;9.634;2023-06-22T04:31:39;8.47;;;6.30;;
1601;SDS011;794;48.592;9.634;2023-06-22T04:34:06;7.20;;;5.97;;
1601;SDS011;794;48.592;9.634;2023-06-22T04:36:41;7.30;;;6.10;;
1601;SDS011;794;48.592;9.634;2023-06-22T04:39:09;7.83;;;6.50;;
1601;SDS011;794;48.592;9.634;2023-06-22T04:41:36;6.37;;;5.73;;
1601;SDS011;794;48.592;9.634;2023-06-22T04:44:09;8.93;;;5.70;;
1601;SDS011;794;48.592;9.634;2023-06-22T04:46:37;10.40;;;6.40;;
1601;SDS011;794;48.592;9.634;2023-06-22T04:49:06;11.07;;;5.50;;
1601;SDS011;794;48.592;9.634;2023-06-22T04:51:36;9.57;;;5.43;;
1601;SDS011;794;48.592;9.634;2023-06-22T04:54:04;6.87;;;5.80;;
1601;SDS011;794;48.592;9.634;2023-06-22T04:56:31;7.20;;;5.97;;
1601;SDS011;794;48.592;9.634;2023-06-22T04:58:58;5.60;;;5.10;;
1601;SDS011;794;48.592;9.634;2023-06-22T05:01:26;6.13;;;4.80;;
1601;SDS011;794;48.592;9.634;2023-06-22T05:03:54;6.07;;;5.17;;
1601;SDS011;794;48.592;9.634;2023-06-22T05:06:21;7.03;;;4.80;;
1601;SDS011;794;48.592;9.634;2023-06-22T05:08:50;6.97;;;4.87;;
1601;SDS011;794;48.592;9.634;2023-06-22T05:11:20;6.50;;;5.27;;
1601;SDS011;794;48.592;9.634;2023-06-22T05:13:47;6.20;;;5.30;;
1601;SDS011;794;48.592;9.634;2023-06-22T05:16:14;8.23;;;5.30;;
1601;SDS011;794;48.592;9.634;2023-06-22T05:18:41;7.10;;;4.53;;
1601;SDS011;794;48.592;9.634;2023-06-22T05:21:45;6.80;;;4.87;;
1601;SDS011;794;48.592;9.634;2023-06-22T05:24:12;6.30;;;5.20;;
1601;SDS011;794;48.592;9.634;2023-06-22T05:26:39;5.90;;;5.30;;
1601;SDS011;794;48.592;9.634;2023-06-22T05:29:06;6.03;;;4.33;;
1601;SDS011;794;48.592;9.634;2023-06-22T05:31:38;5.40;;;4.20;;
1601;SDS011;794;48.592;9.634;2023-06-22T05:34:06;5.27;;;4.37;;
1601;SDS011;794;48.592;9.634;2023-06-22T05:36:36;5.37;;;3.80;;
1601;SDS011;794;48.592;9.634;2023-06-22T05:39:11;4.90;;;4.30;;
1601;SDS011;794;48.592;9.634;2023-06-22T05:41:39;5.63;;;4.20;;
1601;SDS011;794;48.592;9.634;2023-06-22T05:44:06;6.17;;;4.00;;
1601;SDS011;794;48.592;9.634;2023-06-22T05:46:33;6.90;;;3.93;;
1601;SDS011;794;48.592;9.634;2023-06-22T05:49:00;4.33;;;3.87;;
1601;SDS011;794;48.592;9.634;2023-06-22T05:51:27;5.90;;;4.20;;
1601;SDS011;794;48.592;9.634;2023-06-22T05:53:54;6.57;;;4.10;;
1601;SDS011;794;48.592;9.634;2023-06-22T05:56:22;5.60;;;4.00;;
1601;SDS011;794;48.592;9.634;2023-06-22T05:58:49;7.60;;;3.60;;
1601;SDS011;794;48.592;9.634;2023-06-22T06:01:16;5.60;;;3.97;;
1601;SDS011;794;48.592;9.634;2023-06-22T06:03:43;10.80;;;3.80;;
1601;SDS011;794;48.592;9.634;2023-06-22T06:06:10;9.50;;;4.10;;
1601;SDS011;794;48.592;9.634;2023-06-22T06:08:37;9.20;;;4.40;;
1601;SDS011;794;48.592;9.634;2023-06-22T06:11:04;6.33;;;3.33;;
1601;SDS011;794;48.592;9.634;2023-06-22T06:13:32;4.90;;;3.70;;
1601;SDS011;794;48.592;9.634;2023-06-22T06:15:59;6.70;;;3.60;;
1601;SDS011;794;48.592;9.634;2023-06-22T06:18:26;10.23;;;3.93;;
1601;SDS011;794;48.592;9.634;2023-06-22T06:20:53;4.87;;;4.37;;
1601;SDS011;794;48.592;9.634;2023-06-22T06:23:19;5.73;;;3.90;;
1601;SDS011;794;48.592;9.634;2023-06-22T06:25:46;8.53;;;4.07;;
1601;SDS011;794;48.592;9.634;2023-06-22T06:28:13;4.87;;;3.80;;
1601;SDS011;794;48.592;9.634;2023-06-22T06:30:42;4.20;;;3.70;;
1601;SDS011;794;48.592;9.634;2023-06-22T06:33:08;5.23;;;3.43;;
1601;SDS011;794;48.592;9.634;2023-06-22T06:35:35;7.00;;;4.37;;
1601;SDS011;794;48.592;9.634;2023-06-22T06:38:02;6.80;;;3.40;;
1601;SDS011;794;48.592;9.634;2023-06-22T06:40:29;7.80;;;4.50;;
1601;SDS011;794;48.592;9.634;2023-06-22T06:42:56;8.33;;;4.30;;
1601;SDS011;794;48.592;9.634;2023-06-22T06:45:23;11.17;;;4.77;;
1601;SDS011;794;48.592;9.634;2023-06-22T06:47:54;9.83;;;4.47;;
1601;SDS011;794;48.592;9.634;2023-06-22T06:50:21;11.57;;;4.37;;
1601;SDS011;794;48.592;9.634;2023-06-22T06:52:48;6.60;;;4.63;;
1601;SDS011;794;48.592;9.634;2023-06-22T06:55:16;7.57;;;4.67;;
1601;SDS011;794;48.592;9.634;2023-06-22T06:57:44;9.93;;;5.00;;
1601;SDS011;794;48.592;9.634;2023-06-22T07:00:13;5.33;;;4.33;;
1601;SDS011;794;48.592;9.634;2023-06-22T07:02:41;7.33;;;4.60;;
1601;SDS011;794;48.592;9.634;2023-06-22T07:05:12;11.57;;;4.97;;
1601;SDS011;794;48.592;9.634;2023-06-22T07:07:39;6.70;;;4.53;;
1601;SDS011;794;48.592;9.634;2023-06-22T07:10:06;7.23;;;4.20;;
1601;SDS011;794;48.592;9.634;2023-06-22T07:12:34;6.33;;;4.90;;
1601;SDS011;794;48.592;9.634;2023-06-22T07:15:02;7.73;;;4.90;;
1601;SDS011;794;48.592;9.634;2023-06-22T07:17:30;6.30;;;5.03;;
1601;SDS011;794;48.592;9.634;2023-06-22T07:19:57;5.43;;;4.90;;
1601;SDS011;794;48.592;9.634;2023-06-22T07:22:26;8.57;;;4.20;;
1601;SDS011;794;48.592;9.634;2023-06-22T07:25:02;7.77;;;4.80;;
1601;SDS011;794;48.592;9.634;2023-06-22T07:27:35;7.30;;;4.33;;
1601;SDS011;794;48.592;9.634;2023-06-22T07:30:05;11.63;;;6.20;;
1601;SDS011;794;48.592;9.634;2023-06-22T07:32:33;4.90;;;4.03;;
1601;SDS011;794;48.592;9.634;2023-06-22T07:35:00;8.33;;;5.20;;
1601;SDS011;794;48.592;9.634;2023-06-22T07:37:31;10.80;;;4.77;;
1601;SDS011;794;48.592;9.634;2023-06-22T07:39:58;5.80;;;4.63;;
1601;SDS011;794;48.592;9.634;2023-06-22T07:42:25;6.23;;;4.70;;
1601;SDS011;794;48.592;9.634;2023-06-22T07:44:52;7.47;;;5.63;;
1601;SDS011;794;48.592;9.634;2023-06-22T07:47:19;17.07;;;5.67;;
1601;SDS011;794;48.592;9.634;2023-06-22T07:49:50;8.33;;;4.70;;
1601;SDS011;794;48.592;9.634;2023-06-22T07:52:17;14.03;;;6.47;;
1601;SDS011;794;48.592;9.634;2023-06-22T07:54:45;12.07;;;5.13;;
1601;SDS011;794;48.592;9.634;2023-06-22T07:57:12;6.70;;;4.30;;
1601;SDS011;794;48.592;9.634;2023-06-22T07:59:38;10.30;;;5.30;;
1601;SDS011;794;48.592;9.634;2023-06-22T08:02:05;13.43;;;5.60;;
1601;SDS011;794;48.592;9.634;2023-06-22T08:04:33;11.90;;;5.10;;
1601;SDS011;794;48.592;9.634;2023-06-22T08:07:00;7.77;;;5.17;;
1601;SDS011;794;48.592;9.634;2023-06-22T08:09:31;12.07;;;5.27;;
1601;SDS011;794;48.592;9.634;2023-06-22T08:12:00;7.00;;;4.77;;
1601;SDS011;794;48.592;9.634;2023-06-22T08:14:27;7.77;;;4.77;;
1601;SDS011;794;48.592;9.634;2023-06-22T08:16:55;6.90;;;5.23;;
1601;SDS011;794;48.592;9.634;2023-06-22T08:19:22;8.73;;;5.60;;
1601;SDS011;794;48.592;9.634;2023-06-22T08:21:49;11.17;;;5.70;;
1601;SDS011;794;48.592;9.634;2023-06-22T08:24:16;8.20;;;5.37;;
1601;SDS011;794;48.592;9.634;2023-06-22T08:26:42;13.70;;;5.57;;
1601;SDS011;794;48.592;9.634;2023-06-22T08:29:11;10.03;;;6.00;;
1601;SDS011;794;48.592;9.634;2023-06-22T08:31:38;12.67;;;5.50;;
1601;SDS011;794;48.592;9.634;2023-06-22T08:34:05;8.80;;;6.00;;
1601;SDS011;794;48.592;9.634;2023-06-22T08:36:31;10.93;;;5.70;;
1601;SDS011;794;48.592;9.634;2023-06-22T08:39:06;7.93;;;5.50;;
1601;SDS011;794;48.592;9.634;2023-06-22T08:41:34;13.73;;;5.57;;
1601;SDS011;794;48.592;9.634;2023-06-22T08:44:01;11.43;;;5.73;;
1601;SDS011;794;48.592;9.634;2023-06-22T08:46:29;9.57;;;5.20;;
1601;SDS011;794;48.592;9.634;2023-06-22T08:48:58;8.10;;;5.57;;
1601;SDS011;794;48.592;9.634;2023-06-22T08:51:26;12.73;;;5.47;;
1601;SDS011;794;48.592;9.634;2023-06-22T08:53:53;9.63;;;5.00;;
1601;SDS011;794;48.592;9.634;2023-06-22T08:56:20;11.67;;;5.40;;
1601;SDS011;794;48.592;9.634;2023-06-22T08:58:47;8.57;;;6.00;;
1601;SDS011;794;48.592;9.634;2023-06-22T09:01:14;14.63;;;6.00;;
1601;SDS011;794;48.592;9.634;2023-06-22T09:03:42;7.73;;;5.33;;
1601;SDS011;794;48.592;9.634;2023-06-22T09:06:19;9.70;;;6.00;;
1601;SDS011;794;48.592;9.634;2023-06-22T09:08:45;13.30;;;6.10;;
1601;SDS011;794;48.592;9.634;2023-06-22T09:11:13;10.93;;;5.80;;
1601;SDS011;794;48.592;9.634;2023-06-22T09:13:40;9.63;;;5.60;;
1601;SDS011;794;48.592;9.634;2023-06-22T09:16:07;6.67;;;5.70;;
1601;SDS011;794;48.592;9.634;2023-06-22T09:18:34;9.33;;;5.60;;
1601;SDS011;794;48.592;9.634;2023-06-22T09:21:03;7.67;;;5.60;;
1601;SDS011;794;48.592;9.634;2023-06-22T09:23:30;10.03;;;5.60;;
1601;SDS011;794;48.592;9.634;2023-06-22T09:25:57;9.20;;;5.93;;
1601;SDS011;794;48.592;9.634;2023-06-22T09:28:24;11.70;;;6.73;;
1601;SDS011;794;48.592;9.634;2023-06-22T09:30:51;9.03;;;6.80;;
1601;SDS011;794;48.592;9.634;2023-06-22T09:33:24;6.23;;;5.17;;
1601;SDS011;794;48.592;9.634;2023-06-22T09:35:51;8.97;;;6.30;;
1601;SDS011;794;48.592;9.634;2023-06-22T09:38:22;6.63;;;5.63;;
1601;SDS011;794;48.592;9.634;2023-06-22T09:40:49;15.73;;;6.37;;
1601;SDS011;794;48.592;9.634;2023-06-22T09:43:16;12.03;;;7.03;;
1601;SDS011;794;48.592;9.634;2023-06-22T09:45:43;11.43;;;6.03;;
1601;SDS011;794;48.592;9.634;2023-06-22T09:48:10;13.80;;;6.50;;
1601;SDS011;794;48.592;9.634;2023-06-22T09:50:37;12.27;;;6.37;;
1601;SDS011;794;48.592;9.634;2023-06-22T09:53:06;10.93;;;6.53;;
1601;SDS011;794;48.592;9.634;2023-06-22T09:55:35;8.97;;;5.70;;
1601;SDS011;794;48.592;9.634;2023-06-22T09:58:01;9.50;;;6.27;;
1601;SDS011;794;48.592;9.634;2023-06-22T10:00:28;9.80;;;6.07;;
1601;SDS011;794;48.592;9.634;2023-06-22T10:02:55;9.03;;;6.03;;
1601;SDS011;794;48.592;9.634;2023-06-22T10:05:22;11.00;;;6.03;;
1601;SDS011;794;48.592;9.634;2023-06-22T10:07:49;11.47;;;6.07;;
1601;SDS011;794;48.592;9.634;2023-06-22T10:10:17;9.17;;;6.73;;
1601;SDS011;794;48.592;9.634;2023-06-22T10:12:46;11.23;;;6.70;;
1601;SDS011;794;48.592;9.634;2023-06-22T10:15:20;12.60;;;7.03;;
1601;SDS011;794;48.592;9.634;2023-06-22T10:17:47;13.90;;;6.90;;
1601;SDS011;794;48.592;9.634;2023-06-22T10:20:17;12.20;;;6.83;;
1601;SDS011;794;48.592;9.634;2023-06-22T10:22:44;11.87;;;7.10;;
1601;SDS011;794;48.592;9.634;2023-06-22T10:25:12;15.40;;;6.17;;
1601;SDS011;794;48.592;9.634;2023-06-22T10:27:39;14.57;;;7.37;;
1601;SDS011;794;48.592;9.634;2023-06-22T10:30:08;15.40;;;6.83;;
1601;SDS011;794;48.592;9.634;2023-06-22T10:32:38;14.67;;;7.50;;
1601;SDS011;794;48.592;9.634;2023-06-22T10:35:05;10.10;;;7.53;;
1601;SDS011;794;48.592;9.634;2023-06-22T10:37:32;12.23;;;7.17;;
1601;SDS011;794;48.592;9.634;2023-06-22T10:39:59;10.20;;;6.90;;
1601;SDS011;794;48.592;9.634;2023-06-22T10:42:26;9.67;;;7.17;;
1601;SDS011;794;48.592;9.634;2023-06-22T10:44:53;16.97;;;7.13;;
1601;SDS011;794;48.592;9.634;2023-06-22T10:47:21;11.17;;;6.90;;
1601;SDS011;794;48.592;9.634;2023-06-22T10:49:48;10.83;;;7.20;;
1601;SDS011;794;48.592;9.634;2023-06-22T10:52:15;24.23;;;8.57;;
1601;SDS011;794;48.592;9.634;2023-06-22T10:54:42;18.80;;;7.00;;
1601;SDS011;794;48.592;9.634;2023-06-22T10:57:09;10.60;;;7.23;;
1601;SDS011;794;48.592;9.634;2023-06-22T10:59:36;10.97;;;7.10;;
1601;SDS011;794;48.592;9.634;2023-06-22T11:02:02;11.67;;;8.00;;
1601;SDS011;794;48.592;9.634;2023-06-22T11:04:31;8.10;;;6.00;;
1601;SDS011;794;48.592;9.634;2023-06-22T11:06:58;12.17;;;6.90;;
1601;SDS011;794;48.592;9.634;2023-06-22T11:09:25;12.00;;;7.10;;
1601;SDS011;794;48.592;9.634;2023-06-22T11:11:52;18.07;;;7.97;;
1601;SDS011;794;48.592;9.634;2023-06-22T11:14:19;9.57;;;6.97;;
1601;SDS011;794;48.592;9.634;2023-06-22T11:16:46;16.37;;;6.50;;
1601;SDS011;794;48.592;9.634;2023-06-22T11:19:13;12.87;;;7.00;;
1601;SDS011;794;48.592;9.634;2023-06-22T11:21:41;14.20;;;6.93;;
1601;SDS011;794;48.592;9.634;2023-06-22T11:24:08;17.20;;;7.17;;
1601;SDS011;794;48.592;9.634;2023-06-22T11:26:35;13.93;;;6.60;;
1601;SDS011;794;48.592;9.634;2023-06-22T11:29:02;12.60;;;7.20;;
1601;SDS011;794;48.592;9.634;2023-06-22T11:31:30;13.40;;;6.77;;
1601;SDS011;794;48.592;9.634;2023-06-22T11:33:57;14.60;;;7.90;;
1601;SDS011;794;48.592;9.634;2023-06-22T11:36:24;13.20;;;6.90;;
1601;SDS011;794;48.592;9.634;2023-06-22T11:38:53;12.17;;;7.60;;
1601;SDS011;794;48.592;9.634;2023-06-22T11:41:20;15.07;;;8.27;;
1601;SDS011;794;48.592;9.634;2023-06-22T11:43:47;12.77;;;7.43;;
1601;SDS011;794;48.592;9.634;2023-06-22T11:46:14;14.87;;;8.07;;
1601;SDS011;794;48.592;9.634;2023-06-22T11:48:41;14.80;;;7.47;;
1601;SDS011;794;48.592;9.634;2023-06-22T11:51:08;13.13;;;8.23;;
1601;SDS011;794;48.592;9.634;2023-06-22T11:53:35;9.03;;;7.60;;
1601;SDS011;794;48.592;9.634;2023-06-22T11:56:03;13.70;;;8.63;;
1601;SDS011;794;48.592;9.634;2023-06-22T11:58:30;40.07;;;19.13;;
1601;SDS011;794;48.592;9.634;2023-06-22T12:00:57;38.00;;;17.60;;
1601;SDS011;794;48.592;9.634;2023-06-22T12:03:23;16.60;;;8.43;;
1601;SDS011;794;48.592;9.634;2023-06-22T12:05:50;8.80;;;6.43;;
1601;SDS011;794;48.592;9.634;2023-06-22T12:08:17;14.50;;;7.40;;
1601;SDS011;794;48.592;9.634;2023-06-22T12:10:44;15.50;;;8.30;;
1601;SDS011;794;48.592;9.634;2023-06-22T12:13:12;12.63;;;6.90;;
1601;SDS011;794;48.592;9.634;2023-06-22T12:15:39;8.90;;;8.00;;
1601;SDS011;794;48.592;9.634;2023-06-22T12:18:06;13.67;;;8.40;;
1601;SDS011;794;48.592;9.634;2023-06-22T12:20:33;15.17;;;8.13;;
1601;SDS011;794;48.592;9.634;2023-06-22T12:23:01;14.53;;;8.03;;
1601;SDS011;794;48.592;9.634;2023-06-22T12:25:28;18.50;;;7.80;;
1601;SDS011;794;48.592;9.634;2023-06-22T12:27:54;14.53;;;8.13;;
1601;SDS011;794;48.592;9.634;2023-06-22T12:30:23;16.43;;;8.17;;
1601;SDS011;794;48.592;9.634;2023-06-22T12:32:50;10.27;;;7.03;;
1601;SDS011;794;48.592;9.634;2023-06-22T12:35:16;16.43;;;8.43;;
1601;SDS011;794;48.592;9.634;2023-06-22T12:37:43;17.30;;;7.23;;
1601;SDS011;794;48.592;9.634;2023-06-22T12:40:10;11.03;;;6.40;;
1601;SDS011;794;48.592;9.634;2023-06-22T12:42:38;11.17;;;7.60;;
1601;SDS011;794;48.592;9.634;2023-06-22T12:45:05;16.80;;;7.23;;
1601;SDS011;794;48.592;9.634;2023-06-22T12:47:34;11.53;;;8.07;;
1601;SDS011;794;48.592;9.634;2023-06-22T12:50:00;11.83;;;6.97;;
1601;SDS011;794;48.592;9.634;2023-06-22T12:52:29;12.77;;;7.00;;
1601;SDS011;794;48.592;9.634;2023-06-22T12:54:56;12.47;;;6.43;;
1601;SDS011;794;48.592;9.634;2023-06-22T12:57:23;16.63;;;7.57;;
1601;SDS011;794;48.592;9.634;2023-06-22T12:59:50;11.70;;;7.50;;
1601;SDS011;794;48.592;9.634;2023-06-22T13:02:17;12.90;;;7.03;;
1601;SDS011;794;48.592;9.634;2023-06-22T13:04:46;12.07;;;7.30;;
1601;SDS011;794;48.592;9.634;2023-06-22T13:07:13;17.10;;;7.90;;
1601;SDS011;794;48.592;9.634;2023-06-22T13:09:40;12.53;;;7.07;;
1601;SDS011;794;48.592;9.634;2023-06-22T13:12:07;8.00;;;6.63;;
1601;SDS011;794;48.592;9.634;2023-06-22T13:14:34;16.97;;;8.90;;
1601;SDS011;794;48.592;9.634;2023-06-22T13:17:01;10.13;;;7.53;;
1601;SDS011;794;48.592;9.634;2023-06-22T13:19:28;13.73;;;7.80;;
1601;SDS011;794;48.592;9.634;2023-06-22T13:21:59;10.00;;;7.20;;
1601;SDS011;794;48.592;9.634;2023-06-22T13:24:27;13.50;;;8.80;;
1601;SDS011;794;48.592;9.634;2023-06-22T13:26:54;12.93;;;7.60;;
1601;SDS011;794;48.592;9.634;2023-06-22T13:29:21;14.87;;;8.43;;
1601;SDS011;794;48.592;9.634;2023-06-22T13:31:49;10.97;;;7.00;;
1601;SDS011;794;48.592;9.634;2023-06-22T13:34:15;17.00;;;8.03;;
1601;SDS011;794;48.592;9.634;2023-06-22T13:36:42;10.03;;;6.17;;
1601;SDS011;794;48.592;9.634;2023-06-22T13:39:10;15.90;;;7.73;;
1601;SDS011;794;48.592;9.634;2023-06-22T13:41:37;10.33;;;7.57;;
1601;SDS011;794;48.592;9.634;2023-06-22T13:44:04;13.07;;;7.90;;
1601;SDS011;794;48.592;9.634;2023-06-22T13:46:31;14.03;;;8.10;;
1601;SDS011;794;48.592;9.634;2023-06-22T13:48:58;15.97;;;8.80;;
1601;SDS011;794;48.592;9.634;2023-06-22T13:51:25;14.03;;;8.10;;
1601;SDS011;794;48.592;9.634;2023-06-22T13:53:51;9.03;;;6.87;;
1601;SDS011;794;48.592;9.634;2023-06-22T13:56:20;12.10;;;7.40;;
1601;SDS011;794;48.592;9.634;2023-06-22T13:58:47;8.77;;;7.50;;
1601;SDS011;794;48.592;9.634;2023-06-22T14:01:14;11.70;;;8.03;;
1601;SDS011;794;48.592;9.634;2023-06-22T14:03:41;10.17;;;8.27;;
1601;SDS011;794;48.592;9.634;2023-06-22T14:06:10;16.73;;;7.67;;
1601;SDS011;794;48.592;9.634;2023-06-22T14:08:37;12.67;;;7.53;;
1601;SDS011;794;48.592;9.634;2023-06-22T14:11:04;9.40;;;6.27;;
1601;SDS011;794;48.592;9.634;2023-06-22T14:13:32;16.17;;;8.67;;
1601;SDS011;794;48.592;9.634;2023-06-22T14:16:00;11.30;;;7.40;;
1601;SDS011;794;48.592;9.634;2023-06-22T14:18:29;15.93;;;7.37;;
1601;SDS011;794;48.592;9.634;2023-06-22T14:20:55;12.43;;;7.50;;
1601;SDS011;794;48.592;9.634;2023-06-22T14:23:22;15.50;;;7.67;;
1601;SDS011;794;48.592;9.634;2023-06-22T14:25:49;11.83;;;7.57;;
1601;SDS011;794;48.592;9.634;2023-06-22T14:28:16;13.40;;;7.60;;
1601;SDS011;794;48.592;9.634;2023-06-22T14:30:44;12.50;;;7.30;;
1601;SDS011;794;48.592;9.634;2023-06-22T14:33:11;17.93;;;7.93;;
1601;SDS011;794;48.592;9.634;2023-06-22T14:35:38;14.50;;;7.53;;
1601;SDS011;794;48.592;9.634;2023-06-22T14:38:05;14.47;;;8.57;;
1601;SDS011;794;48.592;9.634;2023-06-22T14:40:32;19.23;;;7.27;;
1601;SDS011;794;48.592;9.634;2023-06-22T14:42:59;10.47;;;7.03;;
1601;SDS011;794;48.592;9.634;2023-06-22T14:45:26;13.87;;;7.00;;
1601;SDS011;794;48.592;9.634;2023-06-22T14:47:54;11.30;;;7.53;;
1601;SDS011;794;48.592;9.634;2023-06-22T14:50:21;14.20;;;6.90;;
1601;SDS011;794;48.592;9.634;2023-06-22T14:52:48;13.60;;;6.83;;
1601;SDS011;794;48.592;9.634;2023-06-22T14:55:15;11.23;;;6.80;;
1601;SDS011;794;48.592;9.634;2023-06-22T14:57:42;12.33;;;7.13;;
1601;SDS011;794;48.592;9.634;2023-06-22T15:00:09;9.60;;;6.20;;
1601;SDS011;794;48.592;9.634;2023-06-22T15:02:36;10.17;;;5.67;;
1601;SDS011;794;48.592;9.634;2023-06-22T15:05:05;13.70;;;7.43;;
1601;SDS011;794;48.592;9.634;2023-06-22T15:07:32;13.13;;;6.90;;
1601;SDS011;794;48.592;9.634;2023-06-22T15:09:58;13.50;;;6.83;;
1601;SDS011;794;48.592;9.634;2023-06-22T15:12:25;12.10;;;6.30;;
1601;SDS011;794;48.592;9.634;2023-06-22T15:14:52;8.70;;;6.43;;
1601;SDS011;794;48.592;9.634;2023-06-22T15:17:19;14.83;;;6.53;;
1601;SDS011;794;48.592;9.634;2023-06-22T15:19:46;14.40;;;6.87;;
1601;SDS011;794;48.592;9.634;2023-06-22T15:22:14;9.70;;;6.93;;
1601;SDS011;794;48.592;9.634;2023-06-22T15:24:43;17.53;;;6.57;;
1601;SDS011;794;48.592;9.634;2023-06-22T15:27:10;13.30;;;6.30;;